Time;durP1;ratioP1;P1;durP2;ratioP2;P2;SDS_P1;SDS_P2;PMS_P1;PMS_P2;Temp;Humidity;BMP_temperature;BMP_pressure;BME280_temperature;BME280_humidity;BME280_pressure;Samples;Min_cycle;Max_cycle;Signal;HPM_P1;HPM_P2
2021/05/26 00:00:53;;;;;;;30.00;6.20;;;;;;;;;;4963330;28;37390;-77
2021/05/26 00:03:20;;;;;;;25.27;6.07;;;;;;;;;;4953561;28;40985;-77
2021/05/26 00:05:47;;;;;;;20.70;5.32;;;;;;;;;;4958231;28;39231;-77
2021/05/26 00:08:14;;;;;;;27.50;5.72;;;;;;;;;;4946364;28;38727;-77
2021/05/26 00:10:40;;;;;;;26.25;5.15;;;;;;;;;;4940966;28;36745;-77
2021/05/26 00:13:06;;;;;;;23.25;5.53;;;;;;;;;;4956126;28;36881;-77
2021/05/26 00:15:33;;;;;;;23.98;4.20;;;;;;;;;;4960266;28;40206;-77
2021/05/26 00:17:59;;;;;;;20.13;4.18;;;;;;;;;;4966142;28;38149;-77
2021/05/26 00:20:26;;;;;;;22.20;3.80;;;;;;;;;;4957578;28;37103;-77
2021/05/26 00:22:52;;;;;;;14.52;3.05;;;;;;;;;;4966004;28;39181;-77
2021/05/26 00:25:19;;;;;;;15.32;3.35;;;;;;;;;;4961551;28;38363;-77
2021/05/26 00:27:46;;;;;;;9.80;2.60;;;;;;;;;;4941394;28;37931;-77
2021/05/26 00:30:14;;;;;;;9.75;2.58;;;;;;;;;;4957347;28;37555;-77
2021/05/26 00:32:40;;;;;;;13.77;2.38;;;;;;;;;;4941974;28;38251;-77
2021/05/26 00:35:09;;;;;;;14.15;2.95;;;;;;;;;;4958533;28;36973;-77
2021/05/26 00:37:35;;;;;;;20.98;2.80;;;;;;;;;;4961274;28;39982;-77
2021/05/26 00:40:02;;;;;;;16.33;2.67;;;;;;;;;;4956136;28;36061;-77
2021/05/26 00:42:30;;;;;;;12.68;2.53;;;;;;;;;;4962119;28;40066;-77
2021/05/26 00:44:56;;;;;;;22.42;3.50;;;;;;;;;;4940080;28;38060;-77
2021/05/26 00:47:38;;;;;;;15.07;2.63;;;;;;;;;;4961856;28;37861;-77
2021/05/26 00:50:04;;;;;;;16.20;2.72;;;;;;;;;;4963190;28;37258;-77
2021/05/26 00:52:31;;;;;;;9.48;2.00;;;;;;;;;;4949839;28;47373;-77
2021/05/26 00:54:57;;;;;;;14.70;2.50;;;;;;;;;;4963649;28;37601;-77
2021/05/26 00:57:24;;;;;;;12.35;2.28;;;;;;;;;;4957807;28;37752;-77
2021/05/26 00:59:50;;;;;;;4.88;1.70;;;;;;;;;;4966598;28;36005;-77
2021/05/26 01:02:16;;;;;;;13.70;1.88;;;;;;;;;;4960174;28;39462;-77
2021/05/26 01:04:43;;;;;;;11.15;2.30;;;;;;;;;;4964724;28;38618;-77
2021/05/26 01:07:10;;;;;;;6.55;1.73;;;;;;;;;;4959890;28;38784;-77
2021/05/26 01:09:36;;;;;;;13.45;2.20;;;;;;;;;;4944728;28;37146;-77
2021/05/26 01:12:03;;;;;;;15.20;1.85;;;;;;;;;;4962620;28;37493;-77
2021/05/26 01:14:30;;;;;;;11.48;2.22;;;;;;;;;;4962628;28;37985;-77
2021/05/26 01:16:56;;;;;;;11.85;2.20;;;;;;;;;;4957768;28;37712;-77
2021/05/26 01:19:22;;;;;;;11.38;2.30;;;;;;;;;;4958288;28;36430;-77
2021/05/26 01:21:49;;;;;;;12.30;2.50;;;;;;;;;;4961309;28;39865;-77
2021/05/26 01:24:16;;;;;;;16.90;3.50;;;;;;;;;;4943493;28;39619;-77
2021/05/26 01:26:43;;;;;;;14.05;2.72;;;;;;;;;;4955466;28;40573;-77
2021/05/26 01:29:10;;;;;;;20.15;3.10;;;;;;;;;;4958035;28;37053;-77
2021/05/26 01:31:37;;;;;;;19.30;3.10;;;;;;;;;;4964360;28;37447;-77
2021/05/26 01:34:03;;;;;;;21.65;3.22;;;;;;;;;;4960938;28;36621;-78
2021/05/26 01:36:32;;;;;;;23.00;3.90;;;;;;;;;;4964329;28;38679;-77
2021/05/26 01:38:59;;;;;;;20.30;3.55;;;;;;;;;;4967931;28;36359;-77
2021/05/26 01:41:26;;;;;;;14.35;3.53;;;;;;;;;;4948433;28;38442;-77
2021/05/26 01:43:54;;;;;;;14.85;3.38;;;;;;;;;;4967016;28;39744;-77
2021/05/26 01:46:21;;;;;;;18.40;3.58;;;;;;;;;;4957590;28;36728;-77
2021/05/26 01:48:48;;;;;;;18.02;3.67;;;;;;;;;;4962895;28;36524;-77
2021/05/26 01:51:14;;;;;;;18.02;3.80;;;;;;;;;;4942645;28;37566;-77
2021/05/26 01:53:41;;;;;;;16.45;3.65;;;;;;;;;;4957941;28;42560;-77
2021/05/26 01:56:15;;;;;;;16.80;4.40;;;;;;;;;;4958443;28;38093;-77
2021/05/26 01:58:41;;;;;;;17.60;3.72;;;;;;;;;;4958665;28;35870;-77
2021/05/26 02:01:08;;;;;;;23.15;4.20;;;;;;;;;;4960276;28;39355;-77
2021/05/26 02:03:39;;;;;;;19.10;3.90;;;;;;;;;;4960344;28;39431;-77
2021/05/26 02:06:06;;;;;;;26.88;4.70;;;;;;;;;;4957888;28;38517;-77
2021/05/26 02:08:33;;;;;;;31.00;3.92;;;;;;;;;;4964567;28;37092;-77
2021/05/26 02:13:45;;;;;;;18.60;4.45;;;;;;;;;;4958884;28;49760;-77
2021/05/26 02:16:11;;;;;;;12.02;2.92;;;;;;;;;;4942695;28;37764;-77
2021/05/26 02:18:37;;;;;;;17.80;3.53;;;;;;;;;;4959000;28;36022;-77
2021/05/26 02:21:04;;;;;;;15.70;3.58;;;;;;;;;;4959570;28;39557;-77
2021/05/26 02:23:31;;;;;;;18.15;3.60;;;;;;;;;;4956567;28;38961;-77
2021/05/26 02:25:57;;;;;;;13.48;3.28;;;;;;;;;;4962356;28;39362;-77
2021/05/26 02:28:23;;;;;;;16.25;3.70;;;;;;;;;;4957700;28;37700;-77
2021/05/26 02:30:50;;;;;;;10.07;2.78;;;;;;;;;;4962128;28;39012;-77
2021/05/26 02:33:16;;;;;;;14.90;3.47;;;;;;;;;;4962628;28;37929;-77
2021/05/26 02:35:43;;;;;;;11.27;2.75;;;;;;;;;;4955499;28;40141;-77
2021/05/26 02:38:10;;;;;;;11.48;2.92;;;;;;;;;;4958443;28;36834;-77
2021/05/26 02:40:36;;;;;;;11.75;3.95;;;;;;;;;;4940060;28;37800;-77
2021/05/26 02:43:03;;;;;;;14.52;3.83;;;;;;;;;;4957411;28;38141;-77
2021/05/26 02:45:30;;;;;;;13.02;4.07;;;;;;;;;;4956830;28;41432;-77
2021/05/26 02:47:57;;;;;;;16.90;3.92;;;;;;;;;;4954739;28;36734;-77
2021/05/26 02:50:24;;;;;;;12.88;4.85;;;;;;;;;;4938170;28;38752;-77
2021/05/26 02:52:51;;;;;;;19.58;4.95;;;;;;;;;;4960144;28;38882;-77
2021/05/26 02:55:18;;;;;;;11.10;4.35;;;;;;;;;;4937585;28;37661;-77
2021/05/26 02:57:44;;;;;;;14.13;4.22;;;;;;;;;;4955768;28;36873;-77
2021/05/26 03:00:11;;;;;;;11.82;3.60;;;;;;;;;;4960613;28;39075;-77
2021/05/26 03:02:38;;;;;;;19.40;4.97;;;;;;;;;;4965139;28;38820;-76
2021/05/26 03:05:06;;;;;;;16.50;4.72;;;;;;;;;;4945541;28;37465;-78
2021/05/26 03:07:32;;;;;;;13.23;3.65;;;;;;;;;;4948521;28;37216;-77
2021/05/26 03:09:59;;;;;;;14.27;4.22;;;;;;;;;;4967517;28;38483;-77
2021/05/26 03:12:25;;;;;;;14.95;4.07;;;;;;;;;;4967143;28;39003;-77
2021/05/26 03:14:51;;;;;;;17.25;4.88;;;;;;;;;;4942266;28;37440;-77
2021/05/26 03:17:18;;;;;;;19.13;4.47;;;;;;;;;;4962805;28;35865;-77
2021/05/26 03:19:44;;;;;;;16.70;4.95;;;;;;;;;;4946021;28;38136;-77
2021/05/26 03:22:11;;;;;;;16.05;4.85;;;;;;;;;;4957996;28;39174;-77
2021/05/26 03:24:37;;;;;;;13.55;4.20;;;;;;;;;;4965928;28;39327;-77
2021/05/26 03:27:04;;;;;;;13.45;3.70;;;;;;;;;;4964011;28;37828;-77
2021/05/26 03:29:30;;;;;;;17.00;4.63;;;;;;;;;;4960233;28;38398;-77
2021/05/26 03:31:56;;;;;;;11.90;4.60;;;;;;;;;;4955894;28;39441;-77
2021/05/26 03:34:23;;;;;;;13.25;4.60;;;;;;;;;;4960569;28;38440;-77
2021/05/26 03:36:49;;;;;;;13.75;4.45;;;;;;;;;;4944090;28;35644;-77
2021/05/26 03:39:16;;;;;;;12.75;4.40;;;;;;;;;;4962159;28;40451;-77
2021/05/26 03:41:42;;;;;;;15.88;4.95;;;;;;;;;;4959063;28;38087;-77
2021/05/26 03:44:09;;;;;;;12.65;4.65;;;;;;;;;;4947191;28;37778;-77
2021/05/26 03:46:36;;;;;;;12.73;4.65;;;;;;;;;;4959292;28;36258;-77
2021/05/26 03:49:04;;;;;;;9.63;4.17;;;;;;;;;;4960378;28;39608;-77
2021/05/26 03:51:31;;;;;;;16.77;4.30;;;;;;;;;;4966674;28;37945;-77
2021/05/26 03:53:57;;;;;;;13.97;4.20;;;;;;;;;;4961367;28;40348;-77
2021/05/26 03:56:24;;;;;;;16.27;4.70;;;;;;;;;;4960824;28;38429;-77
2021/05/26 03:58:50;;;;;;;14.27;5.50;;;;;;;;;;4965616;28;39016;-77
2021/05/26 04:01:17;;;;;;;13.40;4.90;;;;;;;;;;4962886;28;39390;-77
2021/05/26 04:03:43;;;;;;;14.68;5.10;;;;;;;;;;4964589;28;37518;-77
2021/05/26 04:06:10;;;;;;;11.13;4.47;;;;;;;;;;4961500;28;37522;-77
2021/05/26 04:08:36;;;;;;;11.10;5.35;;;;;;;;;;4962198;28;39349;-76
2021/05/26 04:11:03;;;;;;;14.75;5.32;;;;;;;;;;4964339;28;37584;-77
2021/05/26 04:13:30;;;;;;;13.70;6.25;;;;;;;;;;4945298;28;38524;-77
2021/05/26 04:15:56;;;;;;;11.77;5.50;;;;;;;;;;4960223;28;37067;-77
2021/05/26 04:18:23;;;;;;;11.70;5.78;;;;;;;;;;4945394;28;37794;-77
2021/05/26 04:20:49;;;;;;;15.35;5.97;;;;;;;;;;4961881;28;39008;-77
2021/05/26 04:23:15;;;;;;;14.57;5.93;;;;;;;;;;4953345;28;37861;-77
2021/05/26 04:25:48;;;;;;;15.68;6.60;;;;;;;;;;4958119;28;35712;-77
2021/05/26 04:28:14;;;;;;;16.10;6.88;;;;;;;;;;4955393;28;39231;-77
2021/05/26 04:30:40;;;;;;;14.57;6.57;;;;;;;;;;4957542;28;39707;-77
2021/05/26 04:33:07;;;;;;;14.93;6.10;;;;;;;;;;4964666;28;38754;-77
2021/05/26 04:35:33;;;;;;;13.85;6.13;;;;;;;;;;4945097;28;37366;-77
2021/05/26 04:38:00;;;;;;;10.52;5.15;;;;;;;;;;4943838;28;39854;-77
2021/05/26 04:40:27;;;;;;;14.48;5.70;;;;;;;;;;4954839;28;40655;-77
2021/05/26 04:42:53;;;;;;;18.17;6.32;;;;;;;;;;4961347;28;37161;-77
2021/05/26 04:45:20;;;;;;;12.23;5.88;;;;;;;;;;4957663;28;42231;-77
2021/05/26 04:47:46;;;;;;;12.88;6.60;;;;;;;;;;4960537;28;38218;-78
2021/05/26 04:50:14;;;;;;;10.02;5.57;;;;;;;;;;4963062;28;39807;-77
2021/05/26 04:52:40;;;;;;;15.18;6.85;;;;;;;;;;4957556;28;38491;-78
2021/05/26 04:55:07;;;;;;;15.18;6.35;;;;;;;;;;4953114;28;36981;-77
2021/05/26 04:57:33;;;;;;;14.65;6.20;;;;;;;;;;4944940;28;40201;-77
2021/05/26 04:59:59;;;;;;;14.05;7.00;;;;;;;;;;4959692;28;38047;-77
2021/05/26 05:02:31;;;;;;;13.45;5.97;;;;;;;;;;4949940;28;40342;-77
2021/05/26 05:04:58;;;;;;;14.80;6.20;;;;;;;;;;4930638;28;37477;-77
2021/05/26 05:07:24;;;;;;;17.33;8.93;;;;;;;;;;4956953;28;39435;-78
2021/05/26 05:09:50;;;;;;;16.88;8.55;;;;;;;;;;4959486;28;39394;-78
2021/05/26 05:12:17;;;;;;;16.35;8.30;;;;;;;;;;4962281;28;39753;-78
2021/05/26 05:14:43;;;;;;;17.50;7.70;;;;;;;;;;4964377;28;37493;-79
2021/05/26 05:17:10;;;;;;;12.48;7.63;;;;;;;;;;4951437;28;40138;-78
2021/05/26 05:19:39;;;;;;;20.63;8.07;;;;;;;;;;4959713;28;39906;-78
2021/05/26 05:22:06;;;;;;;12.50;7.40;;;;;;;;;;4960969;28;39755;-77
2021/05/26 05:24:32;;;;;;;13.25;8.70;;;;;;;;;;4963827;28;37894;-79
2021/05/26 05:27:02;;;;;;;17.65;9.60;;;;;;;;;;4947530;28;38085;-78
2021/05/26 05:29:28;;;;;;;18.42;9.02;;;;;;;;;;4960973;28;46658;-77
2021/05/26 05:31:54;;;;;;;14.18;7.53;;;;;;;;;;4965329;28;38662;-77
2021/05/26 05:34:21;;;;;;;12.65;7.05;;;;;;;;;;4954641;28;35429;-77
2021/05/26 05:36:47;;;;;;;14.30;7.28;;;;;;;;;;4960972;28;41022;-77
2021/05/26 05:39:14;;;;;;;13.13;7.32;;;;;;;;;;4950028;28;38574;-79
2021/05/26 05:41:43;;;;;;;14.27;7.15;;;;;;;;;;4957314;28;38367;-77
2021/05/26 05:44:10;;;;;;;12.70;6.40;;;;;;;;;;4965690;28;38750;-77
2021/05/26 05:46:36;;;;;;;14.05;7.47;;;;;;;;;;4963918;28;38713;-77
2021/05/26 05:49:03;;;;;;;10.90;6.22;;;;;;;;;;4952158;28;37643;-78
2021/05/26 05:51:29;;;;;;;13.13;6.25;;;;;;;;;;4960724;28;38036;-77
2021/05/26 05:53:56;;;;;;;14.27;6.03;;;;;;;;;;4942304;28;35988;-78
2021/05/26 05:56:22;;;;;;;10.50;5.65;;;;;;;;;;4966477;28;39733;-77
2021/05/26 05:58:48;;;;;;;14.07;5.65;;;;;;;;;;4959634;28;37679;-77
2021/05/26 06:01:15;;;;;;;13.57;5.10;;;;;;;;;;4950796;28;38730;-77
2021/05/26 06:03:41;;;;;;;10.88;4.53;;;;;;;;;;4957619;28;35555;-77
2021/05/26 06:06:08;;;;;;;8.43;4.38;;;;;;;;;;4956138;28;38734;-76
2021/05/26 06:08:35;;;;;;;13.65;5.80;;;;;;;;;;4951115;28;37505;-77
2021/05/26 06:11:02;;;;;;;13.43;5.47;;;;;;;;;;4956533;28;37815;-76
2021/05/26 06:13:28;;;;;;;12.25;5.13;;;;;;;;;;4962784;28;36960;-76
2021/05/26 06:15:55;;;;;;;13.15;5.57;;;;;;;;;;4942848;28;37444;-76
2021/05/26 06:18:22;;;;;;;8.55;5.63;;;;;;;;;;4958944;28;39571;-76
2021/05/26 06:20:48;;;;;;;9.70;5.32;;;;;;;;;;4958655;28;37523;-75
2021/05/26 06:23:14;;;;;;;12.55;6.18;;;;;;;;;;4961168;28;37165;-76
2021/05/26 06:25:41;;;;;;;12.48;6.50;;;;;;;;;;4962214;28;39009;-77
2021/05/26 06:28:07;;;;;;;10.73;5.90;;;;;;;;;;4955992;28;38725;-77
2021/05/26 06:30:33;;;;;;;12.30;5.93;;;;;;;;;;4949167;28;39714;-77
2021/05/26 06:33:00;;;;;;;9.30;5.68;;;;;;;;;;4961152;28;36502;-77
2021/05/26 06:35:26;;;;;;;14.18;6.32;;;;;;;;;;4955461;28;38952;-76
2021/05/26 06:37:56;;;;;;;10.20;5.78;;;;;;;;;;4963581;28;38926;-77
2021/05/26 06:40:22;;;;;;;12.60;6.30;;;;;;;;;;4969143;28;39464;-77
2021/05/26 06:42:48;;;;;;;16.42;5.95;;;;;;;;;;4969410;28;36749;-77
2021/05/26 06:45:15;;;;;;;11.18;5.85;;;;;;;;;;4957352;28;37603;-78
2021/05/26 06:47:41;;;;;;;13.10;6.00;;;;;;;;;;4968713;28;41067;-77
2021/05/26 06:50:11;;;;;;;13.60;6.10;;;;;;;;;;4989731;28;39374;-79
2021/05/26 06:52:38;;;;;;;12.90;6.40;;;;;;;;;;4968645;28;35800;-78
2021/05/26 06:55:04;;;;;;;12.55;5.50;;;;;;;;;;4969653;28;38681;-79
2021/05/26 06:57:31;;;;;;;17.10;6.13;;;;;;;;;;4972138;28;48755;-78
2021/05/26 06:59:57;;;;;;;10.55;5.55;;;;;;;;;;4962979;28;39390;-78
2021/05/26 07:02:24;;;;;;;13.38;6.90;;;;;;;;;;4963227;28;38154;-78
2021/05/26 07:04:50;;;;;;;11.85;6.50;;;;;;;;;;4940259;28;37886;-78
2021/05/26 07:07:16;;;;;;;12.73;6.57;;;;;;;;;;4962364;28;38832;-79
2021/05/26 07:09:43;;;;;;;12.85;6.97;;;;;;;;;;4957803;28;39170;-78
2021/05/26 07:12:09;;;;;;;10.95;6.53;;;;;;;;;;4968787;28;36417;-79
2021/05/26 07:14:37;;;;;;;12.55;6.90;;;;;;;;;;4966363;28;38338;-79
2021/05/26 07:17:04;;;;;;;15.05;7.38;;;;;;;;;;4968868;28;38719;-78
2021/05/26 07:19:30;;;;;;;15.73;7.13;;;;;;;;;;4945061;28;37773;-78
2021/05/26 07:21:56;;;;;;;14.15;6.90;;;;;;;;;;4965449;28;37992;-78
2021/05/26 07:24:23;;;;;;;12.40;6.20;;;;;;;;;;4963295;28;37644;-78
2021/05/26 07:26:49;;;;;;;8.50;6.13;;;;;;;;;;4955048;28;37634;-78
2021/05/26 07:29:16;;;;;;;12.38;6.43;;;;;;;;;;4964038;28;37975;-78
2021/05/26 07:31:42;;;;;;;7.13;5.15;;;;;;;;;;4952543;28;35786;-78
2021/05/26 07:34:11;;;;;;;11.25;5.60;;;;;;;;;;4945304;28;38949;-78
2021/05/26 07:36:37;;;;;;;9.52;4.75;;;;;;;;;;4960105;28;38907;-78
2021/05/26 07:39:04;;;;;;;15.30;5.53;;;;;;;;;;4964902;28;39532;-78
2021/05/26 07:41:31;;;;;;;8.80;5.00;;;;;;;;;;4963926;28;37120;-78
2021/05/26 07:43:57;;;;;;;11.52;4.50;;;;;;;;;;4954099;28;38990;-78
2021/05/26 07:46:24;;;;;;;12.43;6.13;;;;;;;;;;4943695;28;39914;-78
2021/05/26 07:48:52;;;;;;;11.40;5.55;;;;;;;;;;4944874;28;37589;-78
2021/05/26 07:51:29;;;;;;;11.95;5.10;;;;;;;;;;4954689;28;37220;-78
2021/05/26 07:53:56;;;;;;;8.35;4.82;;;;;;;;;;4967942;28;38867;-78
2021/05/26 07:56:22;;;;;;;11.27;5.00;;;;;;;;;;4971007;28;39982;-78
2021/05/26 07:58:51;;;;;;;8.32;4.65;;;;;;;;;;4953473;28;37896;-78
2021/05/26 08:01:18;;;;;;;12.20;4.88;;;;;;;;;;4965050;28;37673;-78
2021/05/26 08:03:44;;;;;;;10.23;4.72;;;;;;;;;;4969996;28;38683;-78
2021/05/26 08:06:12;;;;;;;13.10;4.93;;;;;;;;;;4966811;28;38672;-79
2021/05/26 08:08:39;;;;;;;11.45;5.28;;;;;;;;;;4968353;28;38551;-78
2021/05/26 08:11:05;;;;;;;11.52;4.82;;;;;;;;;;4961750;28;37793;-78
2021/05/26 08:13:32;;;;;;;9.65;4.18;;;;;;;;;;4965608;28;38213;-78
2021/05/26 08:15:59;;;;;;;13.88;4.03;;;;;;;;;;4961641;28;38751;-78
2021/05/26 08:18:25;;;;;;;7.93;3.03;;;;;;;;;;4955100;28;39060;-78
2021/05/26 08:20:51;;;;;;;6.28;2.03;;;;;;;;;;4966405;28;37286;-78
2021/05/26 08:23:18;;;;;;;5.70;1.80;;;;;;;;;;4965474;28;38741;-79
2021/05/26 08:25:44;;;;;;;7.18;2.22;;;;;;;;;;4964587;28;39263;-78
2021/05/26 08:28:13;;;;;;;6.35;1.73;;;;;;;;;;4966793;28;39236;-78
2021/05/26 08:30:41;;;;;;;7.45;2.25;;;;;;;;;;4953936;28;35709;-79
2021/05/26 08:33:08;;;;;;;10.32;2.15;;;;;;;;;;4935146;28;39008;-79
2021/05/26 08:35:34;;;;;;;6.75;2.10;;;;;;;;;;4937657;28;37811;-79
2021/05/26 08:38:01;;;;;;;7.82;2.20;;;;;;;;;;4960418;28;38830;-79
2021/05/26 08:40:27;;;;;;;7.05;1.80;;;;;;;;;;4929617;28;37556;-78
2021/05/26 08:42:54;;;;;;;10.65;2.20;;;;;;;;;;4966196;28;40237;-78
2021/05/26 08:45:20;;;;;;;8.25;2.30;;;;;;;;;;4956944;28;39208;-78
2021/05/26 08:47:49;;;;;;;5.85;1.80;;;;;;;;;;4939356;28;39738;-78
2021/05/26 08:50:16;;;;;;;7.57;2.45;;;;;;;;;;4955251;28;40039;-78
2021/05/26 08:52:43;;;;;;;7.50;1.70;;;;;;;;;;4951292;28;38498;-78
2021/05/26 08:55:16;;;;;;;8.70;1.85;;;;;;;;;;4966558;28;39466;-78
2021/05/26 08:57:42;;;;;;;7.82;1.73;;;;;;;;;;4967230;28;39929;-78
2021/05/26 09:00:10;;;;;;;7.35;1.52;;;;;;;;;;4950618;28;37500;-78
2021/05/26 09:02:36;;;;;;;8.32;1.90;;;;;;;;;;4963819;28;39294;-79
2021/05/26 09:05:03;;;;;;;4.63;1.30;;;;;;;;;;4972514;28;40051;-79
2021/05/26 09:07:33;;;;;;;6.68;1.65;;;;;;;;;;4964334;28;38516;-76
2021/05/26 09:09:59;;;;;;;6.35;1.33;;;;;;;;;;4966173;28;37409;-78
2021/05/26 09:12:30;;;;;;;8.30;1.83;;;;;;;;;;4955632;28;39892;-78
2021/05/26 09:15:01;;;;;;;9.15;2.15;;;;;;;;;;4962096;28;38769;-78
2021/05/26 09:17:31;;;;;;;6.38;1.67;;;;;;;;;;4958513;28;47795;-78
2021/05/26 09:20:13;;;;;;;5.75;1.55;;;;;;;;;;4967057;28;37367;-79
2021/05/26 09:22:42;;;;;;;6.40;1.75;;;;;;;;;;4957764;28;49013;-78
2021/05/26 09:25:09;;;;;;;8.77;2.08;;;;;;;;;;4956986;28;39432;-79
2021/05/26 09:27:35;;;;;;;6.40;1.67;;;;;;;;;;4944894;28;39768;-78
2021/05/26 09:30:02;;;;;;;12.65;2.08;;;;;;;;;;4955352;28;35281;-78
2021/05/26 09:32:31;;;;;;;8.35;2.05;;;;;;;;;;4947604;28;49255;-77
2021/05/26 09:34:58;;;;;;;4.70;1.90;;;;;;;;;;4960417;28;37889;-78
2021/05/26 09:37:27;;;;;;;8.48;2.10;;;;;;;;;;4957799;28;37462;-78
2021/05/26 09:39:57;;;;;;;5.95;2.10;;;;;;;;;;4962410;28;36618;-77
2021/05/26 09:42:34;;;;;;;9.65;2.72;;;;;;;;;;4956305;28;37903;-78
2021/05/26 09:45:12;;;;;;;12.15;2.70;;;;;;;;;;4962419;28;39798;-78
2021/05/26 09:47:49;;;;;;;6.38;1.98;;;;;;;;;;4938992;28;48573;-79
2021/05/26 09:50:16;;;;;;;7.25;2.28;;;;;;;;;;4966410;28;36147;-78
2021/05/26 09:52:51;;;;;;;10.50;2.17;;;;;;;;;;4963127;28;40127;-78
2021/05/26 09:55:50;;;;;;;4.82;1.83;;;;;;;;;;4972100;28;39778;-78
2021/05/26 09:58:17;;;;;;;5.80;1.60;;;;;;;;;;4939513;28;38803;-78
2021/05/26 10:00:45;;;;;;;8.68;2.78;;;;;;;;;;4968714;28;37046;-78
2021/05/26 10:03:11;;;;;;;5.88;1.80;;;;;;;;;;4964235;28;39925;-79
2021/05/26 10:05:38;;;;;;;6.88;1.40;;;;;;;;;;4962952;28;39950;-78
2021/05/26 10:08:12;;;;;;;5.10;1.90;;;;;;;;;;4958398;28;39072;-79
2021/05/26 10:10:41;;;;;;;5.45;1.83;;;;;;;;;;4968006;28;38753;-78
2021/05/26 10:13:10;;;;;;;7.15;2.10;;;;;;;;;;4968553;28;38657;-78
2021/05/26 10:15:37;;;;;;;4.93;1.50;;;;;;;;;;4968058;28;39032;-78
2021/05/26 10:18:04;;;;;;;7.63;1.85;;;;;;;;;;4950066;28;39344;-79
2021/05/26 10:20:32;;;;;;;4.93;1.58;;;;;;;;;;4954823;28;37204;-78
2021/05/26 10:23:00;;;;;;;5.57;1.65;;;;;;;;;;4956524;28;38767;-78
2021/05/26 10:25:26;;;;;;;4.70;1.33;;;;;;;;;;4948184;28;38375;-79
2021/05/26 10:27:54;;;;;;;4.28;1.98;;;;;;;;;;4953369;28;39493;-78
2021/05/26 10:30:21;;;;;;;3.35;1.20;;;;;;;;;;4940757;28;37973;-78
2021/05/26 10:33:01;;;;;;;6.95;1.30;;;;;;;;;;4951886;28;39392;-78
2021/05/26 10:35:31;;;;;;;4.88;1.05;;;;;;;;;;4966223;28;49110;-78
2021/05/26 10:38:03;;;;;;;3.70;1.15;;;;;;;;;;4959228;28;40617;-78
2021/05/26 10:40:32;;;;;;;3.42;1.10;;;;;;;;;;4959882;28;48526;-77
2021/05/26 10:43:19;;;;;;;1.27;0.50;;;;;;;;;;4968002;28;40471;-77
2021/05/26 10:45:55;;;;;;;1.33;0.30;;;;;;;;;;4954300;28;47940;-78
2021/05/26 10:48:54;;;;;;;1.83;0.52;;;;;;;;;;4944995;28;41099;-78
2021/05/26 10:51:20;;;;;;;2.08;0.60;;;;;;;;;;4938940;28;36578;-78
2021/05/26 10:53:47;;;;;;;2.67;0.57;;;;;;;;;;4969180;28;39626;-78
2021/05/26 10:56:41;;;;;;;0.77;0.30;;;;;;;;;;4944023;28;39947;-79
2021/05/26 10:59:14;;;;;;;1.83;0.47;;;;;;;;;;4934632;28;38994;-78
2021/05/26 11:02:04;;;;;;;2.80;0.43;;;;;;;;;;4968486;28;37247;-78
2021/05/26 11:04:34;;;;;;;1.73;0.40;;;;;;;;;;4956942;28;47624;-79
2021/05/26 11:07:18;;;;;;;0.88;0.20;;;;;;;;;;4964670;28;39269;-79
2021/05/26 11:10:01;;;;;;;2.45;0.47;;;;;;;;;;4954748;28;49976;-78
2021/05/26 11:12:28;;;;;;;1.95;0.32;;;;;;;;;;4949352;28;42924;-79
2021/05/26 11:14:55;;;;;;;2.70;0.50;;;;;;;;;;4957188;28;41053;-78
2021/05/26 11:17:31;;;;;;;1.75;0.50;;;;;;;;;;4958497;28;40863;-77
2021/05/26 11:20:06;;;;;;;1.75;0.20;;;;;;;;;;4965120;28;39072;-78
2021/05/26 11:22:33;;;;;;;1.88;0.47;;;;;;;;;;4943394;28;49315;-78
2021/05/26 11:25:00;;;;;;;1.88;0.68;;;;;;;;;;4970130;28;39644;-78
2021/05/26 11:27:29;;;;;;;1.20;0.55;;;;;;;;;;4969489;28;39108;-78
2021/05/26 11:29:57;;;;;;;1.00;0.43;;;;;;;;;;4959322;28;38598;-78
2021/05/26 11:32:24;;;;;;;2.28;0.43;;;;;;;;;;4969587;28;35290;-78
2021/05/26 11:34:53;;;;;;;1.70;0.47;;;;;;;;;;4968333;28;41258;-78
2021/05/26 11:37:36;;;;;;;1.20;0.52;;;;;;;;;;4944596;28;40623;-78
2021/05/26 11:40:03;;;;;;;4.53;0.70;;;;;;;;;;4965430;28;39110;-79
2021/05/26 11:42:35;;;;;;;1.80;0.50;;;;;;;;;;4969298;28;49103;-78
2021/05/26 11:45:04;;;;;;;1.17;0.47;;;;;;;;;;4964530;28;40420;-78
2021/05/26 11:47:38;;;;;;;2.42;0.47;;;;;;;;;;4957191;28;48948;-78
2021/05/26 11:50:16;;;;;;;1.00;0.28;;;;;;;;;;4965510;28;40757;-78
2021/05/26 11:52:46;;;;;;;3.67;0.68;;;;;;;;;;4942193;28;49428;-78
2021/05/26 11:55:14;;;;;;;4.20;0.60;;;;;;;;;;4960651;28;39775;-78
2021/05/26 11:57:41;;;;;;;1.40;0.60;;;;;;;;;;4968485;28;40745;-78
2021/05/26 12:00:11;;;;;;;5.45;1.13;;;;;;;;;;4965995;28;39485;-78
2021/05/26 12:02:52;;;;;;;3.63;0.93;;;;;;;;;;4957676;28;37651;-79
2021/05/26 12:05:36;;;;;;;2.47;1.00;;;;;;;;;;4953145;28;39648;-79
2021/05/26 12:08:03;;;;;;;2.78;0.85;;;;;;;;;;4956288;28;38051;-78
2021/05/26 12:10:32;;;;;;;4.57;1.08;;;;;;;;;;4959175;28;37887;-78
2021/05/26 12:13:02;;;;;;;5.32;1.30;;;;;;;;;;4971679;28;37389;-78
2021/05/26 12:15:28;;;;;;;3.38;1.30;;;;;;;;;;4948561;28;47175;-78
2021/05/26 12:17:55;;;;;;;2.55;1.08;;;;;;;;;;4959856;28;39701;-78
2021/05/26 12:20:22;;;;;;;3.75;1.45;;;;;;;;;;4947044;28;38518;-78
2021/05/26 12:22:50;;;;;;;8.18;1.42;;;;;;;;;;4956007;28;37598;-77
2021/05/26 12:25:18;;;;;;;3.40;1.40;;;;;;;;;;4943826;28;39721;-78
2021/05/26 12:27:47;;;;;;;6.57;1.38;;;;;;;;;;4957070;28;40709;-77
2021/05/26 12:30:22;;;;;;;4.45;1.23;;;;;;;;;;4958287;28;39173;-78
2021/05/26 12:32:49;;;;;;;2.85;1.10;;;;;;;;;;4961944;28;37904;-77
2021/05/26 12:35:15;;;;;;;2.67;1.00;;;;;;;;;;4964108;28;40049;-78
2021/05/26 12:37:45;;;;;;;1.90;1.15;;;;;;;;;;4950420;28;42396;-78
2021/05/26 12:40:28;;;;;;;2.63;0.77;;;;;;;;;;4966305;28;39715;-78
2021/05/26 12:42:54;;;;;;;;;;;;;;;;;;4965973;28;37292;-77
2021/05/26 12:45:29;;;;;;;4.88;1.10;;;;;;;;;;4952794;28;39571;-78
2021/05/26 12:47:56;;;;;;;6.18;1.40;;;;;;;;;;4958331;28;39155;-76
2021/05/26 12:50:24;;;;;;;3.92;1.00;;;;;;;;;;4956520;28;40985;-76
2021/05/26 12:52:53;;;;;;;2.95;1.30;;;;;;;;;;4961312;28;37626;-77
2021/05/26 12:55:23;;;;;;;3.78;1.15;;;;;;;;;;4951931;28;38848;-78
2021/05/26 12:57:50;;;;;;;3.22;0.82;;;;;;;;;;4967014;28;42219;-78
2021/05/26 13:00:22;;;;;;;4.22;1.40;;;;;;;;;;4967226;28;38515;-77
2021/05/26 13:02:51;;;;;;;5.00;1.58;;;;;;;;;;4963844;28;38066;-77
2021/05/26 13:05:18;;;;;;;3.40;1.27;;;;;;;;;;4950214;28;37894;-77
2021/05/26 13:07:47;;;;;;;3.83;1.48;;;;;;;;;;4951156;28;39188;-78
2021/05/26 13:10:24;;;;;;;5.15;1.35;;;;;;;;;;4952935;28;39694;-78
2021/05/26 13:12:55;;;;;;;3.22;1.48;;;;;;;;;;4953689;28;37778;-78
2021/05/26 13:15:24;;;;;;;3.42;1.67;;;;;;;;;;4952398;28;39190;-78
2021/05/26 13:17:51;;;;;;;4.85;2.15;;;;;;;;;;4948745;28;38242;-78
2021/05/26 13:20:21;;;;;;;6.15;1.75;;;;;;;;;;4947320;28;38548;-78
2021/05/26 13:22:47;;;;;;;3.65;1.70;;;;;;;;;;4955990;28;37209;-78
2021/05/26 13:25:14;;;;;;;6.40;1.55;;;;;;;;;;4962500;28;40093;-77
2021/05/26 13:27:44;;;;;;;3.33;1.50;;;;;;;;;;4964797;28;38522;-77
2021/05/26 13:30:11;;;;;;;10.20;2.13;;;;;;;;;;4946441;28;37366;-78
2021/05/26 13:32:37;;;;;;;5.47;2.40;;;;;;;;;;4954820;28;37876;-77
2021/05/26 13:35:04;;;;;;;5.93;2.17;;;;;;;;;;4955032;28;39157;-79
2021/05/26 13:37:31;;;;;;;6.13;1.83;;;;;;;;;;4948577;28;38176;-78
2021/05/26 13:39:57;;;;;;;4.60;2.15;;;;;;;;;;4956056;28;37309;-78
2021/05/26 13:42:23;;;;;;;4.70;1.88;;;;;;;;;;4960341;28;36888;-78
2021/05/26 13:44:50;;;;;;;4.22;1.67;;;;;;;;;;4961328;28;37895;-78
2021/05/26 13:47:22;;;;;;;5.20;1.90;;;;;;;;;;4953759;28;37822;-78
2021/05/26 13:49:48;;;;;;;4.70;1.60;;;;;;;;;;4966468;28;38319;-78
2021/05/26 13:52:14;;;;;;;4.95;1.70;;;;;;;;;;4947525;28;37350;-78
2021/05/26 13:54:41;;;;;;;5.45;1.80;;;;;;;;;;4958821;28;39408;-78
2021/05/26 13:57:08;;;;;;;6.10;2.03;;;;;;;;;;4944852;28;38997;-78
2021/05/26 13:59:34;;;;;;;5.50;1.98;;;;;;;;;;4961944;28;38931;-77
2021/05/26 14:02:03;;;;;;;6.47;2.42;;;;;;;;;;4956390;28;37606;-78
2021/05/26 14:04:30;;;;;;;4.30;1.85;;;;;;;;;;4959486;28;46943;-78
2021/05/26 14:06:56;;;;;;;3.20;1.80;;;;;;;;;;4949676;28;38973;-78
2021/05/26 14:09:25;;;;;;;5.35;1.73;;;;;;;;;;4959883;28;37911;-77
2021/05/26 14:11:52;;;;;;;6.10;1.85;;;;;;;;;;4947325;28;37200;-78
2021/05/26 14:14:19;;;;;;;5.90;2.10;;;;;;;;;;4931769;28;38048;-78
2021/05/26 14:16:45;;;;;;;5.80;1.90;;;;;;;;;;4947118;28;39521;-78
2021/05/26 14:19:12;;;;;;;3.03;1.88;;;;;;;;;;4941796;28;39216;-78
2021/05/26 14:21:39;;;;;;;4.28;2.33;;;;;;;;;;4932673;28;37029;-78
2021/05/26 14:24:06;;;;;;;3.85;2.58;;;;;;;;;;4963816;28;40051;-80
2021/05/26 14:26:32;;;;;;;5.45;2.47;;;;;;;;;;4954678;28;39418;-77
2021/05/26 14:28:59;;;;;;;5.60;2.40;;;;;;;;;;4960480;28;39190;-77
2021/05/26 14:31:28;;;;;;;8.73;2.33;;;;;;;;;;4940299;28;38168;-80
2021/05/26 14:33:54;;;;;;;8.55;2.40;;;;;;;;;;4965441;28;39651;-79
2021/05/26 14:36:23;;;;;;;7.32;2.42;;;;;;;;;;4946291;28;39572;-78
2021/05/26 14:41:22;;;;;;;5.45;1.70;;;;;;;;;;4961395;28;37350;-79
2021/05/26 14:43:49;;;;;;;5.72;2.10;;;;;;;;;;4955168;28;37713;-79
2021/05/26 14:46:16;;;;;;;5.00;2.50;;;;;;;;;;4959829;28;40104;-80